Pagrindinis puslapis
METAR-TAF:

METAR-TAF

Oro uostai :

Manila, Filipinai

platuma: 14-31N, ilguma: 121-00E, Aukštis: 14 m

Dabartinis oras

Ataskaita buvo paskelbta 1 valandą ir 2 minutes, ne 21:00 UTC
Vėjas 4 kt iš Pietryčių, svyruoja nuo Šiaurės Rytų ir Pietvakarių
Temperatūra 27°C
Drėgmė 74%
Slėgis 1012 hPa
Matomumas 10 km arba daugiau
Išsisklaidę debesys ne aukštis 2300 ft
Su prošvaistėmis ne aukštis 9000 ft

METAR: RPLL 152100Z 14004KT 050V220 9999 SCT023 BKN090 27/22 Q1012 RMK A2988

Laikas: 06:02 (22:02 UTC)

Prognozė

Ataskaita buvo paskelbta 5 valandos ir 2 minutes, ne 17:00 UTC
Prognozė galioja nuo 15 metu 18 UTC su 16 metu 24 UTC
Vėjas 9 kt iš Rytų
Matomumas 10 km arba daugiau
Mažai debesys ne aukštis 2500 ft
Laikinai
nuo 15 metu 18 UTC su 15 metu 24 UTC
Mažai debesys ne aukštis 2500 ft
Išsisklaidę debesys ne aukštis 10000 ft
Laikinai
nuo 16 metu 03 UTC su 16 metu 09 UTC
Vėjas 13 kt iš Rytų/Šiaurės Rytų

TAF: RPLL 151700Z 1518/1624 08009KT 9999 FEW025 TX33/1606Z TN26/1521Z TEMPO 1518/1524 FEW025 SCT100 TEMPO 1603/1609 07013KT

Orai ataskaitas ir orų prognozės (METAR, TAF).

turimą stotys yra geltonos ir raudonos taškus žemėlapyje.

Perkelti pele per norėdami pamatyti stoties vardą.

Tada spustelėkite, norėdami matyti oro stebėjimo ir prognozės.

Norėdami pakeisti žemėlapį: spustelėkite ant žalios mygtukų su juodo kryžiaus žemyn,; žalią mygtuką su brūkšneliu, jei norite nutolinti; arba žalių rodyklių gretimoms žemėlapius.


METAR-TAF: